createdAt,value
2024-02-14T00:01:50.018Z,100315.12
2024-02-14T00:06:55.550Z,100323.48
2024-02-14T00:11:59.452Z,100327.98
2024-02-14T00:17:03.185Z,100333.23
2024-02-14T00:22:07.884Z,100336.47
2024-02-14T00:27:12.762Z,100339.86
2024-02-14T00:32:17.822Z,100343.67
2024-02-14T00:37:23.130Z,100344.99
2024-02-14T00:42:27.927Z,100348.89
2024-02-14T00:47:34.181Z,100352.71
2024-02-14T00:52:38.193Z,100355.52
2024-02-14T00:57:42.083Z,100356.42
2024-02-14T01:02:46.691Z,100348.18
2024-02-14T01:07:50.608Z,100348.80
2024-02-14T01:12:54.631Z,100344.55
2024-02-14T01:17:58.257Z,100353.27
2024-02-14T01:28:32.035Z,100343.25
2024-02-14T01:33:37.576Z,100344.44
2024-02-14T01:38:41.855Z,100336.21
2024-02-14T01:43:46.273Z,100337.98
2024-02-14T01:48:51.517Z,100337.89
2024-02-14T01:53:56.787Z,100335.32
2024-02-14T01:59:01.841Z,100334.33
2024-02-14T02:04:06.822Z,100334.20
2024-02-14T02:09:12.193Z,100336.66
2024-02-14T02:14:18.128Z,100342.64
2024-02-14T02:19:22.265Z,100340.98
2024-02-14T02:24:26.702Z,100340.39
2024-02-14T02:29:31.601Z,100342.94
2024-02-14T02:34:36.222Z,100347.81
2024-02-14T02:39:40.455Z,100349.58
2024-02-14T02:44:47.687Z,100353.52
2024-02-14T02:49:53.425Z,100359.94
2024-02-14T02:54:57.874Z,100360.38
2024-02-14T03:00:02.183Z,100364.50
2024-02-14T03:05:12.388Z,100365.33
2024-02-14T03:10:22.315Z,100373.32
2024-02-14T03:15:30.433Z,100369.54
2024-02-14T03:20:35.013Z,100371.76
2024-02-14T03:25:39.499Z,100369.55
2024-02-14T03:30:43.906Z,100371.16
2024-02-14T03:35:49.789Z,100369.75
2024-02-14T03:40:54.458Z,100374.16
2024-02-14T03:45:58.441Z,100376.39
2024-02-14T03:51:03.141Z,100377.53
2024-02-14T03:56:08.825Z,100375.01
2024-02-14T04:01:13.762Z,100378.49
2024-02-14T04:06:19.749Z,100384.52
2024-02-14T04:11:24.277Z,100383.71
2024-02-14T04:16:28.418Z,100388.77
2024-02-14T04:21:33.227Z,100391.56
2024-02-14T04:26:37.343Z,100402.17
2024-02-14T04:31:41.201Z,100401.01
2024-02-14T04:36:45.536Z,100398.90
2024-02-14T04:41:57.468Z,100396.39
2024-02-14T04:47:06.611Z,100394.95
2024-02-14T04:52:10.765Z,100394.83
2024-02-14T04:57:15.830Z,100393.21
2024-02-14T05:02:21.060Z,100392.39
2024-02-14T05:07:26.087Z,100400.45
2024-02-14T05:12:30.480Z,100400.89
2024-02-14T05:17:34.842Z,100405.36
2024-02-14T05:22:40.867Z,100408.52
2024-02-14T05:27:48.679Z,100408.81
2024-02-14T05:32:54.194Z,100412.56
2024-02-14T05:37:59.412Z,100420.10
2024-02-14T05:43:03.660Z,100421.46
2024-02-14T05:48:09.652Z,100425.03
2024-02-14T05:53:15.713Z,100428.75
2024-02-14T05:58:20.799Z,100430.04
2024-02-14T06:03:25.668Z,100429.54
2024-02-14T06:08:30.076Z,100427.60
2024-02-14T06:13:34.999Z,100428.26
2024-02-14T06:18:38.641Z,100427.50
2024-02-14T06:23:43.407Z,100434.83
2024-02-14T06:28:48.592Z,100431.48
2024-02-14T06:33:53.255Z,100429.66
2024-02-14T06:38:58.243Z,100433.59
2024-02-14T06:44:03.296Z,100433.29
2024-02-14T06:49:08.067Z,100427.11
2024-02-14T06:54:15.788Z,100429.80
2024-02-14T06:59:19.888Z,100428.11
2024-02-14T07:04:27.096Z,100430.11
2024-02-14T07:09:37.126Z,100436.37
2024-02-14T07:14:42.356Z,100432.98
2024-02-14T07:19:51.710Z,100419.98
2024-02-14T07:24:56.625Z,100423.34
2024-02-14T07:30:01.250Z,100425.73
2024-02-14T07:35:09.094Z,100426.64
2024-02-14T07:40:16.056Z,100430.83
2024-02-14T07:45:22.387Z,100434.48
2024-02-14T07:50:26.500Z,100432.27
2024-02-14T07:55:31.256Z,100438.77
2024-02-14T08:00:36.351Z,100433.23
2024-02-14T08:05:40.501Z,100437.48
2024-02-14T08:10:44.978Z,100432.05
2024-02-14T08:15:49.954Z,100426.77
2024-02-14T08:20:53.884Z,100431.82
2024-02-14T08:25:58.809Z,100433.09
2024-02-14T08:31:03.552Z,100436.26
2024-02-14T08:36:08.124Z,100435.23
2024-02-14T08:41:12.520Z,100433.95
2024-02-14T08:46:16.325Z,100433.75
2024-02-14T08:51:22.301Z,100431.14
2024-02-14T08:56:27.911Z,100427.29
2024-02-14T09:01:32.083Z,100428.34
2024-02-14T09:06:39.493Z,100429.56
2024-02-14T09:11:44.448Z,100428.57
2024-02-14T09:16:49.496Z,100422.19
2024-02-14T09:21:54.094Z,100412.17
2024-02-14T09:26:58.914Z,100415.44
2024-02-14T09:32:02.806Z,100412.21
2024-02-14T09:37:08.393Z,100414.95
2024-02-14T09:42:15.769Z,100421.01
2024-02-14T09:47:21.252Z,100426.25
2024-02-14T09:52:25.452Z,100423.26
2024-02-14T09:57:31.201Z,100423.77
2024-02-14T10:02:35.628Z,100415.31
2024-02-14T10:07:44.521Z,100421.18
2024-02-14T10:12:48.348Z,100418.02
2024-02-14T10:17:52.545Z,100412.67
2024-02-14T10:23:04.994Z,100411.84
2024-02-14T10:28:11.910Z,100401.20
2024-02-14T10:33:24.517Z,100403.73
2024-02-14T10:38:34.945Z,100396.07
2024-02-14T10:43:41.452Z,100394.45
2024-02-14T10:48:45.748Z,100387.52
2024-02-14T10:53:51.264Z,100380.56
2024-02-14T10:59:00.140Z,100375.21
2024-02-14T11:04:06.426Z,100373.09
2024-02-14T11:09:15.488Z,100373.86
2024-02-14T11:14:24.115Z,100369.11
2024-02-14T11:19:37.990Z,100363.73
2024-02-14T11:24:42.986Z,100361.68
2024-02-14T11:29:54.790Z,100358.45
2024-02-14T11:35:00.734Z,100353.56
2024-02-14T11:40:05.948Z,100346.58
2024-02-14T11:45:11.394Z,100346.80
2024-02-14T11:50:16.108Z,100340.28
2024-02-14T11:55:30.038Z,100328.14
2024-02-14T12:00:34.688Z,100326.07
2024-02-14T12:05:39.862Z,100330.33
2024-02-14T12:10:54.675Z,100326.21
2024-02-14T12:16:00.684Z,100321.91
2024-02-14T12:21:11.791Z,100316.77
2024-02-14T12:26:19.208Z,100311.91
2024-02-14T12:31:27.108Z,100305.44
2024-02-14T12:36:31.522Z,100297.79
2024-02-14T12:41:37.473Z,100291.83
2024-02-14T12:46:41.669Z,100292.54
2024-02-14T12:51:46.252Z,100290.45
2024-02-14T12:56:51.037Z,100291.02
2024-02-14T13:01:55.682Z,100288.42
2024-02-14T13:07:00.617Z,100289.77
2024-02-14T13:12:07.701Z,100295.02
2024-02-14T13:17:12.767Z,100293.64
2024-02-14T13:22:18.143Z,100281.43
2024-02-14T13:27:23.136Z,100274.65
2024-02-14T13:32:28.156Z,100276.16
2024-02-14T13:37:33.540Z,100272.61
2024-02-14T13:42:40.889Z,100273.33
2024-02-14T13:47:48.202Z,100266.27
2024-02-14T13:52:53.253Z,100261.67
2024-02-14T13:57:58.329Z,100262.73
2024-02-14T14:03:02.894Z,100260.14
2024-02-14T14:08:07.901Z,100255.65
2024-02-14T14:13:12.898Z,100253.46
2024-02-14T14:18:17.357Z,100253.10
2024-02-14T14:23:21.861Z,100251.44
2024-02-14T14:28:26.532Z,100254.89
2024-02-14T14:33:31.613Z,100261.27
2024-02-14T14:38:36.509Z,100254.61
2024-02-14T14:43:40.908Z,100245.46
2024-02-14T14:48:45.882Z,100247.35
2024-02-14T14:53:51.635Z,100235.01
2024-02-14T14:58:58.123Z,100235.17
2024-02-14T15:04:03.736Z,100236.91
2024-02-14T15:09:09.411Z,100230.13
2024-02-14T15:14:13.936Z,100233.65
2024-02-14T15:19:18.738Z,100235.07
2024-02-14T15:24:23.003Z,100233.10
2024-02-14T15:29:47.283Z,100231.42
2024-02-14T15:34:53.817Z,100233.58
2024-02-14T15:39:59.562Z,100233.74
2024-02-14T15:45:04.699Z,100231.95
2024-02-14T15:50:10.006Z,100235.04
2024-02-14T15:55:14.714Z,100231.88
2024-02-14T16:00:19.700Z,100235.98
2024-02-14T16:05:24.671Z,100239.91
2024-02-14T16:10:29.489Z,100249.67
2024-02-14T16:15:33.416Z,100254.73
2024-02-14T16:20:39.041Z,100260.43
2024-02-14T16:25:44.952Z,100262.52
2024-02-14T16:30:48.940Z,100265.78
2024-02-14T16:35:54.212Z,100270.63
2024-02-14T16:40:58.630Z,100273.48
2024-02-14T16:46:02.490Z,100276.58
2024-02-14T16:51:08.764Z,100280.73
2024-02-14T16:56:12.626Z,100282.10
2024-02-14T17:01:16.783Z,100288.45
2024-02-14T17:06:21.640Z,100292.00
2024-02-14T17:11:27.148Z,100295.36
2024-02-14T17:16:32.764Z,100297.42
2024-02-14T17:21:38.625Z,100305.20
2024-02-14T17:26:42.994Z,100306.94
2024-02-14T17:31:47.892Z,100306.75
2024-02-14T17:36:54.616Z,100310.80
2024-02-14T17:41:59.302Z,100311.92
2024-02-14T17:47:12.711Z,100308.53
2024-02-14T17:52:22.379Z,100311.09
2024-02-14T17:57:26.843Z,100313.05
2024-02-14T18:02:30.736Z,100307.19
2024-02-14T18:07:34.916Z,100302.48
2024-02-14T18:12:39.081Z,100297.44
2024-02-14T18:17:44.354Z,100292.13
2024-02-14T18:22:48.958Z,100288.85
2024-02-14T18:27:54.587Z,100287.13
2024-02-14T18:32:58.388Z,100290.36
2024-02-14T18:38:03.638Z,100289.23
2024-02-14T18:43:08.276Z,100289.63
2024-02-14T18:48:13.458Z,100292.42
2024-02-14T18:53:18.965Z,100297.45
2024-02-14T18:58:23.697Z,100299.46
2024-02-14T19:03:28.000Z,100296.37
2024-02-14T19:08:32.279Z,100291.21
2024-02-14T19:13:36.235Z,100292.59
2024-02-14T19:18:40.129Z,100292.08
2024-02-14T19:23:45.548Z,100285.42
2024-02-14T19:28:50.071Z,100282.63
2024-02-14T19:33:55.530Z,100282.95
2024-02-14T19:39:00.971Z,100285.90
2024-02-14T19:44:05.610Z,100288.05
2024-02-14T19:49:15.441Z,100282.44
2024-02-14T19:54:20.465Z,100282.03
2024-02-14T19:59:24.511Z,100267.45
2024-02-14T20:04:28.664Z,100267.97
2024-02-14T20:09:32.932Z,100271.35
2024-02-14T20:14:37.182Z,100269.99
2024-02-14T20:19:42.706Z,100262.69
2024-02-14T20:24:46.423Z,100261.19
2024-02-14T20:29:51.766Z,100256.33
2024-02-14T20:34:56.765Z,100249.88
2024-02-14T20:40:01.312Z,100252.27
2024-02-14T20:45:06.044Z,100253.39
2024-02-14T20:50:11.345Z,100251.19
2024-02-14T20:55:18.460Z,100246.88
2024-02-14T21:00:24.348Z,100246.58
2024-02-14T21:05:28.335Z,100252.34
2024-02-14T21:10:34.852Z,100253.41
2024-02-14T21:15:40.158Z,100254.78
2024-02-14T21:20:44.673Z,100249.49
2024-02-14T21:25:49.150Z,100248.17
2024-02-14T21:30:53.354Z,100244.92
2024-02-14T21:35:58.897Z,100241.95
2024-02-14T21:41:02.560Z,100247.81
2024-02-14T21:46:06.777Z,100247.95
2024-02-14T21:51:12.251Z,100250.83
2024-02-14T21:56:16.556Z,100253.98
2024-02-14T22:01:20.313Z,100258.50
2024-02-14T22:06:25.067Z,100259.69
2024-02-14T22:11:29.411Z,100263.02
2024-02-14T22:16:33.341Z,100265.85
2024-02-14T22:21:37.293Z,100261.77
2024-02-14T22:26:41.375Z,100265.05
2024-02-14T22:31:45.286Z,100267.09
2024-02-14T22:36:49.733Z,100264.74
2024-02-14T22:41:53.693Z,100265.52
2024-02-14T22:46:57.781Z,100265.52
2024-02-14T22:52:01.767Z,100264.94
2024-02-14T22:57:06.266Z,100266.20
2024-02-14T23:02:10.278Z,100263.20
2024-02-14T23:07:14.856Z,100260.27
2024-02-14T23:12:19.472Z,100261.45
2024-02-14T23:17:23.454Z,100254.95
2024-02-14T23:22:30.085Z,100255.36
2024-02-14T23:27:33.684Z,100253.67
2024-02-14T23:32:40.741Z,100255.63
2024-02-14T23:37:45.156Z,100252.52
2024-02-14T23:42:49.052Z,100259.39
2024-02-14T23:47:55.864Z,100262.44
2024-02-14T23:53:00.679Z,100264.46
2024-02-14T23:58:05.870Z,100269.55
